METAR Data
IDs: Format: Raw Decoded Include TAF

Data at: 0854 UTC 26 Jan 2020

KSTE 260835Z AUTO 29007KT 10SM OVC010 M01/M01 A2986 RMK AO2 T10081015
KSTE 260815Z AUTO 29005KT 10SM OVC010 M01/M01 A2986 RMK AO2 T10061013
KSTE 260755Z AUTO 29005KT 10SM OVC010 M01/M01 A2986 RMK AO2 T10061013
KSTE 260735Z AUTO 28005KT 10SM OVC010 00/M01 A2985 RMK AO2 T10051011
KSTE 260715Z AUTO 28006KT 10SM OVC010 00/M01 A2985 RMK AO2 T10051011
KSTE 260655Z AUTO 28005KT 10SM OVC012 00/M01 A2985 RMK AO2 T10051010
KSTE 260635Z AUTO 30006KT 10SM OVC012 00/M01 A2985 RMK AO2 T10051010
KSTE 260615Z AUTO 29006KT 10SM OVC012 00/M01 A2985 RMK AO2 T10051008
KSTE 260555Z AUTO 28003KT 10SM OVC010 00/M01 A2985 RMK AO2 T10051006 10000 21005 400081016
KSTE 260535Z AUTO 28005KT 10SM OVC010 00/00 A2985 RMK AO2 T10051005
KSTE 260515Z AUTO 28004KT 10SM OVC010 00/00 A2985 RMK AO2 T10051005
KSTE 260455Z AUTO 28005KT 7SM UP OVC008 00/00 A2985 RMK AO2 T10051005
KSTE 260435Z AUTO 28006KT 5SM UP BKN008 OVC016 00/00 A2985 RMK AO2 T10031003
KSTE 260415Z AUTO 27005KT 5SM -RA BKN010 BKN014 OVC018 00/00 A2984 RMK AO2 T10021002
KSTE 260355Z AUTO 27004KT 10SM -RA BKN016 OVC042 00/00 A2984 RMK AO2 T10011003
KSTE 260335Z AUTO 29004KT 10SM UP OVC016 00/00 A2984 RMK AO2 T10011003
KSTE 260315Z AUTO 28003KT 10SM UP OVC014 00/00 A2984 RMK AO2 T10011001
KSTE 260255Z AUTO 29004KT 10SM OVC016 00/00 A2984 RMK AO2 T10011001
KSTE 260235Z AUTO 30003KT 10SM OVC014 00/00 A2984 RMK AO2 T10011001
KSTE 260215Z AUTO 29003KT 10SM OVC012 00/00 A2984 RMK AO2 T10011001
KSTE 260155Z AUTO 28004KT 10SM -RA OVC015 00/00 A2984 RMK AO2 T00000000
KSTE 260135Z AUTO 28003KT 10SM SCT010 BKN015 OVC022 00/00 A2984 RMK AO2 T00000000
KSTE 260115Z AUTO 30003KT 10SM OVC022 00/00 A2984 RMK AO2 T00000000
KSTE 260055Z AUTO 30004KT 10SM SCT017 BKN022 OVC040 00/00 A2984 RMK AO2 T00000000
KSTE 260035Z AUTO 30004KT 10SM BKN016 OVC021 00/00 A2984 RMK AO2 T00000000
KSTE 260015Z AUTO 29003KT 10SM -DZ OVC016 00/00 A2983 RMK AO2 T00000000
KSTE 252355Z AUTO 28003KT 10SM -RA SCT007 SCT010 OVC016 00/00 A2983 RMK AO2 T00000000 10008 20000
KSTE 252335Z AUTO 00000KT 5SM RA SCT007 OVC016 00/00 A2983 RMK AO2 T00000000
KSTE 252315Z AUTO 30003KT 7SM -RA SCT007 BKN019 OVC026 00/00 A2982 RMK AO2 T00020002
KSTE 252255Z AUTO 30003KT 10SM -RA SCT012 BKN019 OVC029 00/00 A2982 RMK AO2 T00030000
KSTE 252235Z AUTO 31005KT 7SM OVC018 01/00 A2982 RMK AO2 T00061001
KSTE 252215Z AUTO 30003KT 10SM BKN016 OVC021 01/00 A2981 RMK AO2 T00071001
KSTE 252155Z AUTO 30004KT 10SM BKN019 OVC041 01/00 A2981 RMK AO2 T00080000
KSTE 252135Z AUTO 32004KT 10SM SCT014 BKN029 OVC043 01/00 A2981 RMK AO2 T00071001
KSTE 252115Z AUTO 30003KT 10SM SCT017 BKN027 OVC032 01/00 A2980 RMK AO2 T00060000
KSTE 252055Z AUTO 30003KT 10SM SCT014 SCT020 OVC027 01/00 A2980 RMK AO2 T00051001
KSTE 252035Z AUTO 31005KT 10SM BKN016 OVC020 00/00 A2979 RMK AO2 T00031001
KSTE 252015Z AUTO 31004KT 10SM OVC016 00/00 A2979 RMK AO2 T00031001
KSTE 251955Z AUTO 31004KT 10SM OVC014 00/00 A2979 RMK AO2 T00031002
KSTE 251935Z AUTO 32004KT 10SM OVC018 00/00 A2980 RMK AO2 T00031005
KSTE 251915Z AUTO 33005KT 10SM SCT014 OVC020 00/00 A2980 RMK AO2 T00031005
KSTE 251855Z AUTO 34005KT 10SM OVC014 00/00 A2980 RMK AO2 T00011005
KSTE 251835Z AUTO 33004KT 10SM OVC014 00/00 A2980 RMK AO2 T00011005
KSTE 251815Z AUTO 33004KT 10SM OVC014 00/00 A2980 RMK AO2 T00001005
KSTE 251755Z AUTO 35005KT 10SM SCT010 OVC014 00/00 A2980 RMK AO2 60001 T00001005 10000 21016
KSTE 251735Z AUTO 35007KT 10SM OVC012 00/00 A2980 RMK AO2 T00001005
KSTE 251715Z AUTO 33005KT 10SM OVC010 00/00 A2981 RMK AO2 T00001005
KSTE 251655Z AUTO 33005KT 10SM OVC012 00/M01 A2981 RMK AO2 T00001007
KSTE 251635Z AUTO 34004KT 10SM BKN010 OVC017 00/M01 A2981 RMK AO2 T10021006
KSTE 251615Z AUTO 34006KT 7SM BKN008 BKN013 OVC019 00/M01 A2980 RMK AO2 T10051006
KSTE 251555Z AUTO 33006KT 10SM OVC006 M01/M01 A2981 RMK AO2 T10061006
KSTE 251535Z AUTO 34007KT 7SM -RA OVC006 M01/M01 A2980 RMK AO2 T10071007
KSTE 251515Z AUTO 33004KT 4SM UP BKN006 BKN014 OVC036 M01/M01 A2979 RMK AO2 T10111011
KSTE 251455Z AUTO 33005KT 7SM UP SCT008 BKN024 OVC049 M01/M01 A2980 RMK AO2 60001 T10121012
KSTE 251435Z AUTO 33004KT 5SM UP SCT008 BKN045 OVC055 M01/M01 A2980 RMK AO2 T10151015
KSTE 251415Z AUTO 33004KT 4SM UP SCT026 SCT031 OVC055 M01/M01 A2980 RMK AO2 T10151015
KSTE 251355Z AUTO 34003KT 2SM UP SCT004 OVC024 M01/M01 A2980 RMK AO2 T10131013
KSTE 251335Z AUTO 36004KT 1 1/2SM UP OVC006 M01/M01 A2980 RMK AO2 T10131013
KSTE 251315Z AUTO 00000KT 1 1/2SM UP OVC006 M01/M01 A2979 RMK AO2 T10131013
KSTE 251255Z AUTO 02003KT 2 1/2SM UP BKN008 BKN013 OVC018 M01/M01 A2979 RMK AO2 P0001 T10131013
KSTE 251235Z AUTO 02004KT 2SM UP SCT006 BKN010 OVC018 M01/M01 A2978 RMK AO2 VIS 1 1/2V4 T10121012
KSTE 251215Z AUTO 01004KT 1 1/2SM UP BKN006 OVC015 M01/M01 A2978 RMK AO2 T10101010
KSTE 251155Z AUTO 34004KT 3SM UP SCT004 BKN018 OVC022 M01/M01 A2978 RMK AO2 70004 T10101010 11005 21010
KSTE 251135Z AUTO 34005KT 2 1/2SM UP BKN006 BKN010 OVC020 M01/M01 A2978 RMK AO2 T10081008
KSTE 251115Z AUTO 34003KT 2 1/2SM UP BKN006 BKN012 OVC022 M01/M01 A2977 RMK AO2 T10081008
KSTE 251055Z AUTO 33004KT 2SM UP OVC006 M01/M01 A2977 RMK AO2 T10071007
KSTE 251035Z AUTO 32003KT 1 1/2SM UP OVC004 M01/M01 A2977 RMK AO2 T10071007
KSTE 251015Z AUTO 34003KT 2SM UP OVC004 M01/M01 A2977 RMK AO2 T10071007
KSTE 250955Z AUTO 33004KT 2SM UP OVC006 M01/M01 A2977 RMK AO2 T10071007
KSTE 250935Z AUTO 33003KT 3SM UP OVC006 M01/M01 A2978 RMK AO2 T10071007
KSTE 250915Z AUTO 34003KT 4SM UP BKN006 BKN016 OVC060 M01/M01 A2978 RMK AO2 T10071007
KSTE 250855Z AUTO 34004KT 3SM UP BKN004 BKN011 OVC070 M01/M01 A2978 RMK AO2 T10061006
KSTE 250835Z AUTO 34003KT 2 1/2SM UP OVC006 M01/M01 A2979 RMK AO2 T10061006
KSTE 250815Z AUTO 35004KT 2SM UP OVC006 M01/M01 A2979 RMK AO2 T10061006
KSTE 250755Z AUTO 00000KT 5SM UP BKN006 BKN010 OVC036 M01/M01 A2979 RMK AO2 T10061006
KSTE 250735Z AUTO 36005KT 5SM UP BKN006 BKN010 OVC042 M01/M01 A2979 RMK AO2 T10061006
KSTE 250715Z AUTO 34004KT 4SM UP BKN006 BKN010 OVC044 M01/M01 A2979 RMK AO2 T10061006
KSTE 250655Z AUTO 35004KT 4SM UP BKN006 BKN011 OVC044 M01/M01 A2980 RMK AO2 T10061006
KSTE 250635Z AUTO 34004KT 2 1/2SM UP OVC004 M01/M01 A2980 RMK AO2 T10061006
KSTE 250615Z AUTO 35004KT 2 1/2SM UP OVC004 M01/M01 A2981 RMK AO2 T10061006
KSTE 250555Z AUTO 35003KT 2 1/2SM UP OVC004 00/00 A2981 RMK AO2 P0002 60004 T10051005 11003 21006 400001020
KSTE 250535Z AUTO 34003KT 1 1/2SM UP OVC004 00/00 A2982 RMK AO2 P0001 T10051005
KSTE 250515Z AUTO 34003KT 2SM UP OVC004 00/00 A2982 RMK AO2 T10051005
KSTE 250455Z AUTO 35003KT 1 3/4SM UP OVC004 00/00 A2982 RMK AO2 P0002 T10051005
KSTE 250435Z AUTO 35004KT 1 1/4SM UP BKN004 OVC011 00/00 A2982 RMK AO2 P0002 T10051005
KSTE 250415Z AUTO 36003KT 1 1/4SM UP BKN004 OVC011 00/00 A2983 RMK AO2 P0001 T10051005
KSTE 250355Z AUTO 36003KT 1 1/2SM UP OVC006 00/00 A2983 RMK AO2 T10051005
KSTE 250335Z AUTO 01004KT 1 3/4SM UP OVC006 00/00 A2983 RMK AO2 T10051005
KSTE 250315Z AUTO 36005KT 4SM UP OVC006 00/00 A2983 RMK AO2 T10051005
KSTE 250255Z AUTO 01004KT 4SM UP OVC004 00/00 A2983 RMK AO2 T10051005
KSTE 250235Z AUTO 01005KT 3SM UP OVC004 00/00 A2984 RMK AO2 T10051005
KSTE 250215Z AUTO 01004KT 3SM BR OVC004 00/00 A2984 RMK AO2 T10051005
KSTE 250155Z AUTO 01004KT 3SM BR OVC004 00/00 A2985 RMK AO2 T10051005
KSTE 250135Z AUTO 02006KT 3SM BR OVC004 00/00 A2986 RMK AO2 T10051005
KSTE 250115Z AUTO 02007KT 3SM UP OVC004 00/00 A2986 RMK AO2 T10031003
KSTE 250055Z AUTO 02006KT 3SM BR OVC006 00/00 A2987 RMK AO2 T10031003
KSTE 250035Z AUTO 03007KT 7SM OVC006 00/00 A2987 RMK AO2 T10031003
KSTE 250015Z AUTO 02007KT 7SM UP OVC006 00/00 A2986 RMK AO2 T10031003
KSTE 242355Z AUTO 03006KT 10SM OVC006 00/00 A2987 RMK AO2 T10031003 10000 21003
KSTE 242335Z AUTO 03006KT 10SM UP OVC006 00/00 A2987 RMK AO2 T10031003
KSTE 242315Z AUTO 02006KT 7SM UP OVC006 00/00 A2987 RMK AO2 T10031003
KSTE 242255Z AUTO 02007KT 5SM UP OVC006 00/00 A2987 RMK AO2 T10021002
KSTE 242235Z AUTO 02008KT 10SM OVC006 00/00 A2988 RMK AO2 T10021002
KSTE 242215Z AUTO 02006KT 5SM UP OVC006 00/00 A2987 RMK AO2 T10031003
KSTE 242155Z AUTO 04006KT 7SM -DZ OVC006 00/00 A2987 RMK AO2 T10021002
KSTE 242135Z AUTO 03006KT 4SM -RA OVC006 00/00 A2988 RMK AO2 T10021002
KSTE 242115Z AUTO 03006KT 5SM -RA OVC008 00/00 A2988 RMK AO2 T10021002
KSTE 242055Z AUTO 04006KT 5SM -DZ OVC008 00/00 A2988 RMK AO2 T10011001